Time;durP1;ratioP1;P1;durP2;ratioP2;P2;SDS_P1;SDS_P2;PMS_P1;PMS_P2;Temp;Humidity;BMP_temperature;BMP_pressure;BME280_temperature;BME280_humidity;BME280_pressure;Samples;Min_cycle;Max_cycle;Signal;HPM_P1;HPM_P2
2024/03/24 01:49:33;;;;;;;0.10;0.10;;;;;;;;;;6310676;22;20073;-92
2024/03/24 01:52:13;;;;;;;0.10;0.10;;;;;;;;;;6281223;22;20007;-93
2024/03/24 01:54:50;;;;;;;0.10;0.10;;;;;;;;;;6286809;22;20003;-93
2024/03/24 01:57:19;;;;;;;0.10;0.10;;;;;;;;;;6289330;22;20003;-93
2024/03/24 01:59:45;;;;;;;0.00;0.00;;;;;;;;;;6289313;22;19999;-93
2024/03/24 03:04:28;;;;;;;0.10;0.10;;;;;;;;;;6283656;22;20028;-92
2024/03/24 03:06:54;;;;;;;0.10;0.10;;;;;;;;;;6257037;22;20000;-94
2024/03/24 03:09:20;;;;;;;0.10;0.10;;;;;;;;;;6255993;22;20063;-94
2024/03/24 03:11:46;;;;;;;0.10;0.10;;;;;;;;;;6255505;22;20000;-93
2024/03/24 03:21:00;;;;;;;;;;;;;;;;;;;;;
2024/03/24 03:26:45;;;;;;;0.10;0.10;;;;;;;;;;6282828;22;20008;-93
2024/03/24 03:29:26;;;;;;;0.10;0.10;;;;;;;;;;6255904;22;20007;-95
2024/03/24 03:31:54;;;;;;;0.10;0.10;;;;;;;;;;6255346;22;20007;-94
2024/03/24 03:34:21;;;;;;;0.10;0.10;;;;;;;;;;6255887;22;20004;-93
2024/03/24 03:37:11;;;;;;;0.10;0.10;;;;;;;;;;6254322;22;19996;-92
2024/03/24 03:40:06;;;;;;;0.10;0.10;;;;;;;;;;6256277;22;20026;-93
2024/03/24 03:42:32;;;;;;;0.10;0.10;;;;;;;;;;6229108;22;20028;-94
2024/03/24 03:45:18;;;;;;;0.05;0.05;;;;;;;;;;6253370;22;20077;-94
2024/03/24 03:48:42;;;;;;;;;;;;;;;;;;;;;
2024/03/24 03:51:42;;;;;;;0.00;0.00;;;;;;;;;;6263301;22;20020;-93
2024/03/24 03:54:33;;;;;;;0.10;0.10;;;;;;;;;;6256397;22;20014;-93
2024/03/24 03:57:10;;;;;;;0.08;0.08;;;;;;;;;;6254623;22;20000;-93
2024/03/24 03:59:57;;;;;;;0.00;0.00;;;;;;;;;;6256558;22;20432;-93
2024/03/24 04:02:33;;;;;;;0.10;0.10;;;;;;;;;;6255213;22;20015;-93
2024/03/24 04:05:26;;;;;;;0.10;0.10;;;;;;;;;;6257852;22;20014;-93
2024/03/24 04:08:00;;;;;;;0.10;0.10;;;;;;;;;;6256892;22;20343;-94
2024/03/24 04:10:31;;;;;;;0.10;0.10;;;;;;;;;;6254780;22;20007;-92
2024/03/24 04:13:09;;;;;;;0.08;0.08;;;;;;;;;;6255426;22;20004;-94
2024/03/24 04:15:53;;;;;;;0.08;0.08;;;;;;;;;;6255444;22;20050;-92
2024/03/24 04:18:27;;;;;;;0.00;0.00;;;;;;;;;;6256142;22;20000;-93
2024/03/24 04:21:06;;;;;;;0.10;0.10;;;;;;;;;;6256364;22;20045;-93
2024/03/24 04:26:34;;;;;;;0.10;0.10;;;;;;;;;;6285647;22;20000;-93
2024/03/24 04:29:13;;;;;;;0.10;0.10;;;;;;;;;;6257489;22;19992;-94
2024/03/24 04:31:51;;;;;;;0.10;0.10;;;;;;;;;;6257090;22;20007;-94
2024/03/24 04:34:17;;;;;;;0.10;0.10;;;;;;;;;;6257051;22;20008;-94
2024/03/24 04:36:43;;;;;;;0.10;0.10;;;;;;;;;;6256013;22;20083;-94
2024/03/24 04:39:12;;;;;;;0.10;0.10;;;;;;;;;;6258127;22;20014;-94
2024/03/24 04:41:38;;;;;;;0.00;0.00;;;;;;;;;;6258168;22;20000;-93
2024/03/24 04:44:06;;;;;;;0.10;0.10;;;;;;;;;;6258042;22;20007;-94
2024/03/24 04:46:31;;;;;;;0.00;0.00;;;;;;;;;;6257438;22;20090;-91
2024/03/24 04:48:57;;;;;;;0.00;0.00;;;;;;;;;;6256346;22;20089;-94
2024/03/24 04:51:23;;;;;;;0.03;0.03;;;;;;;;;;6257452;22;20007;-93
2024/03/24 04:53:49;;;;;;;0.00;0.00;;;;;;;;;;6259975;22;20046;-94
2024/03/24 04:56:16;;;;;;;0.10;0.10;;;;;;;;;;6258533;22;20436;-94
2024/03/24 04:58:41;;;;;;;0.08;0.08;;;;;;;;;;6259855;22;20962;-93
2024/03/24 05:01:07;;;;;;;0.10;0.10;;;;;;;;;;6258787;22;20007;-93
2024/03/24 05:03:34;;;;;;;0.10;0.10;;;;;;;;;;6260915;22;20007;-94
2024/03/24 05:06:00;;;;;;;0.00;0.00;;;;;;;;;;6258263;22;20003;-93
2024/03/24 05:08:28;;;;;;;0.10;0.10;;;;;;;;;;6260516;22;20038;-92
2024/03/24 05:10:54;;;;;;;0.10;0.10;;;;;;;;;;6258588;22;20014;-93
2024/03/24 05:13:20;;;;;;;0.10;0.10;;;;;;;;;;6262592;22;20043;-93
2024/03/24 05:15:58;;;;;;;0.10;0.10;;;;;;;;;;6260282;22;20025;-94
2024/03/24 05:18:27;;;;;;;0.10;0.10;;;;;;;;;;6261932;22;20003;-93
2024/03/24 05:20:53;;;;;;;0.00;0.00;;;;;;;;;;6259402;22;20230;-93
2024/03/24 05:23:21;;;;;;;0.10;0.10;;;;;;;;;;6261891;22;19999;-94
2024/03/24 05:25:58;;;;;;;0.00;0.00;;;;;;;;;;6260410;22;20467;-94
2024/03/24 05:28:27;;;;;;;0.00;0.00;;;;;;;;;;6262444;22;20436;-94
2024/03/24 05:31:06;;;;;;;;;;;;;;;;;;;;;
2024/03/24 05:33:33;;;;;;;0.10;0.10;;;;;;;;;;6282457;22;20254;-93
2024/03/24 05:36:14;;;;;;;0.10;0.10;;;;;;;;;;6261834;22;20004;-93
2024/03/24 05:38:40;;;;;;;0.00;0.00;;;;;;;;;;6262124;22;20079;-94
2024/03/24 05:41:10;;;;;;;0.10;0.10;;;;;;;;;;6261057;22;20003;-94
2024/03/24 05:43:36;;;;;;;0.10;0.10;;;;;;;;;;6262004;22;20010;-94
2024/03/24 05:46:04;;;;;;;0.10;0.10;;;;;;;;;;6261463;22;20034;-93
2024/03/24 05:48:30;;;;;;;0.10;0.10;;;;;;;;;;6261664;22;20003;-93
2024/03/24 05:51:00;;;;;;;0.10;0.10;;;;;;;;;;6261032;22;20385;-93
2024/03/24 05:53:25;;;;;;;0.10;0.10;;;;;;;;;;6263219;22;20450;-93
2024/03/24 05:55:52;;;;;;;0.10;0.10;;;;;;;;;;6260626;22;20011;-94
2024/03/24 05:58:18;;;;;;;0.10;0.10;;;;;;;;;;6261634;22;20073;-94
2024/03/24 06:00:44;;;;;;;0.10;0.10;;;;;;;;;;6259472;22;20030;-93
2024/03/24 06:03:10;;;;;;;0.00;0.00;;;;;;;;;;6263295;22;20011;-94
2024/03/24 06:05:38;;;;;;;0.10;0.10;;;;;;;;;;6261672;22;20067;-93
2024/03/24 06:08:04;;;;;;;0.10;0.10;;;;;;;;;;6261477;22;20447;-94
2024/03/24 06:10:29;;;;;;;0.10;0.10;;;;;;;;;;6258133;22;20004;-94
2024/03/24 06:12:55;;;;;;;0.00;0.00;;;;;;;;;;6261804;22;20012;-94
2024/03/24 06:15:21;;;;;;;0.10;0.10;;;;;;;;;;6259963;22;20010;-94
2024/03/24 06:17:47;;;;;;;0.10;0.10;;;;;;;;;;6260728;22;20344;-94
2024/03/24 06:20:13;;;;;;;0.10;0.10;;;;;;;;;;6259561;22;20436;-94
2024/03/24 06:22:39;;;;;;;0.10;0.10;;;;;;;;;;6261909;22;20019;-94
2024/03/24 06:25:05;;;;;;;0.10;0.10;;;;;;;;;;6262709;22;20004;-93
2024/03/24 06:27:31;;;;;;;0.10;0.10;;;;;;;;;;6259515;22;20090;-93
2024/03/24 06:29:57;;;;;;;0.10;0.10;;;;;;;;;;6261198;22;20038;-94
2024/03/24 06:32:23;;;;;;;0.10;0.10;;;;;;;;;;6260473;22;20072;-94
2024/03/24 06:34:49;;;;;;;0.10;0.10;;;;;;;;;;6260894;22;20004;-94
2024/03/24 06:37:16;;;;;;;0.10;0.10;;;;;;;;;;6261673;22;20030;-93
2024/03/24 06:39:42;;;;;;;0.00;0.00;;;;;;;;;;6262553;22;20053;-93
2024/03/24 07:53:38;;;;;;;0.10;0.10;;;;;;;;;;6308106;22;20023;-90
2024/03/24 07:56:07;;;;;;;0.10;0.10;;;;;;;;;;6279325;22;20052;-90
2024/03/24 07:58:32;;;;;;;0.10;0.10;;;;;;;;;;6280198;22;20082;-89
2024/03/24 08:00:58;;;;;;;0.10;0.10;;;;;;;;;;6280035;22;20498;-89
2024/03/24 08:03:24;;;;;;;0.10;0.10;;;;;;;;;;6279103;22;20057;-87
2024/03/24 11:11:02;;;;;;;0.05;0.05;;;;;;;;;;6304169;22;20077;-92
2024/03/24 11:13:38;;;;;;;0.00;0.00;;;;;;;;;;6308478;22;20031;-89
